createdAt,value
2018-10-06T00:00:28.594Z,5.17
2018-10-06T00:02:55.730Z,5.40
2018-10-06T00:05:22.725Z,5.10
2018-10-06T00:07:49.590Z,5.23
2018-10-06T00:10:16.558Z,5.43
2018-10-06T00:12:43.394Z,5.23
2018-10-06T00:15:10.604Z,4.87
2018-10-06T00:17:37.469Z,5.47
2018-10-06T00:20:04.635Z,5.50
2018-10-06T00:22:32.005Z,4.83
2018-10-06T00:24:58.767Z,5.27
2018-10-06T00:27:26.850Z,5.27
2018-10-06T00:29:53.907Z,4.77
2018-10-06T00:32:20.768Z,5.43
2018-10-06T00:34:47.654Z,5.67
2018-10-06T00:37:14.476Z,4.93
2018-10-06T00:39:42.029Z,5.17
2018-10-06T00:42:08.875Z,4.83
2018-10-06T00:44:35.678Z,5.33
2018-10-06T00:47:02.903Z,5.20
2018-10-06T00:49:29.587Z,4.80
2018-10-06T00:51:56.321Z,5.00
2018-10-06T00:54:23.140Z,4.87
2018-10-06T00:56:51.390Z,5.63
2018-10-06T00:59:19.457Z,5.33
2018-10-06T01:01:46.146Z,5.03
2018-10-06T01:04:13.943Z,5.00
2018-10-06T01:06:40.752Z,5.33
2018-10-06T01:09:08.274Z,5.33
2018-10-06T01:11:34.957Z,5.43
2018-10-06T01:14:01.629Z,5.13
2018-10-06T01:16:28.348Z,5.33
2018-10-06T01:18:56.379Z,5.87
2018-10-06T01:21:23.878Z,4.67
2018-10-06T01:23:50.639Z,5.33
2018-10-06T01:26:17.417Z,5.13
2018-10-06T01:28:44.813Z,4.87
2018-10-06T01:31:12.213Z,5.30
2018-10-06T01:33:38.989Z,4.70
2018-10-06T01:36:05.871Z,5.23
2018-10-06T01:38:32.941Z,5.77
2018-10-06T01:40:59.617Z,5.43
2018-10-06T01:43:26.472Z,4.77
2018-10-06T01:45:53.545Z,5.60
2018-10-06T01:48:20.335Z,5.50
2018-10-06T01:50:47.923Z,5.17
2018-10-06T01:53:14.645Z,5.70
2018-10-06T01:55:41.785Z,5.23
2018-10-06T01:58:08.797Z,5.20
2018-10-06T02:00:35.684Z,5.17
2018-10-06T02:03:02.611Z,5.20
2018-10-06T02:05:29.581Z,5.07
2018-10-06T02:07:56.426Z,4.63
2018-10-06T02:10:23.153Z,5.97
2018-10-06T02:12:49.880Z,4.90
2018-10-06T02:15:17.692Z,5.60
2018-10-06T02:17:44.444Z,6.00
2018-10-06T02:20:11.421Z,5.90
2018-10-06T02:22:38.686Z,5.57
2018-10-06T02:25:05.720Z,5.47
2018-10-06T02:27:32.466Z,5.53
2018-10-06T02:29:59.247Z,5.40
2018-10-06T02:32:26.070Z,5.30
2018-10-06T02:34:53.341Z,5.23
2018-10-06T02:37:20.067Z,5.60
2018-10-06T02:39:47.920Z,5.40
2018-10-06T02:42:14.742Z,5.60
2018-10-06T02:44:42.201Z,5.23
2018-10-06T02:47:09.428Z,5.00
2018-10-06T02:49:36.292Z,5.13
2018-10-06T02:52:03.185Z,5.27
2018-10-06T02:54:30.882Z,5.50
2018-10-06T02:56:57.648Z,5.07
2018-10-06T02:59:24.601Z,4.93
2018-10-06T03:01:51.906Z,5.57
2018-10-06T03:04:19.015Z,5.27
2018-10-06T03:06:45.800Z,5.40
2018-10-06T03:09:12.712Z,5.43
2018-10-06T03:11:40.330Z,6.17
2018-10-06T03:14:07.826Z,5.27
2018-10-06T03:16:34.656Z,4.93
2018-10-06T03:19:01.473Z,5.50
2018-10-06T03:21:28.521Z,4.60
2018-10-06T03:23:55.215Z,5.30
2018-10-06T03:26:22.861Z,5.20
2018-10-06T03:28:49.645Z,5.37
2018-10-06T03:31:16.596Z,4.60
2018-10-06T03:33:43.395Z,5.30
2018-10-06T03:36:10.341Z,5.67
2018-10-06T03:38:37.245Z,4.80
2018-10-06T03:41:04.325Z,5.20
2018-10-06T03:43:31.021Z,4.80
2018-10-06T03:45:57.863Z,4.87
2018-10-06T03:48:24.555Z,5.23
2018-10-06T03:50:51.765Z,5.10
2018-10-06T03:53:18.727Z,4.87
2018-10-06T03:55:45.578Z,5.60
2018-10-06T03:58:12.537Z,4.73
2018-10-06T04:00:39.876Z,5.20
2018-10-06T04:03:06.613Z,5.60
2018-10-06T04:05:33.339Z,4.60
2018-10-06T04:08:01.609Z,5.10
2018-10-06T04:10:28.339Z,5.50
2018-10-06T04:12:55.277Z,5.30
2018-10-06T04:15:22.259Z,5.97
2018-10-06T04:17:49.140Z,5.30
2018-10-06T04:20:15.998Z,4.90
2018-10-06T04:22:42.704Z,4.90
2018-10-06T04:25:09.673Z,5.17
2018-10-06T04:27:37.003Z,4.53
2018-10-06T04:30:03.765Z,4.87
2018-10-06T04:32:30.669Z,6.03
2018-10-06T04:34:57.520Z,5.13
2018-10-06T04:37:24.252Z,5.13
2018-10-06T04:39:51.110Z,5.73
2018-10-06T04:42:19.628Z,4.97
2018-10-06T04:44:47.131Z,5.50
2018-10-06T04:47:14.006Z,5.63
2018-10-06T04:49:40.838Z,5.80
2018-10-06T04:52:07.668Z,5.43
2018-10-06T04:54:34.712Z,5.57
2018-10-06T04:57:01.572Z,5.33
2018-10-06T04:59:28.742Z,5.10
2018-10-06T05:01:55.606Z,5.50
2018-10-06T05:04:22.764Z,4.70
2018-10-06T05:06:49.598Z,4.87
2018-10-06T05:09:16.408Z,5.00
2018-10-06T05:11:43.962Z,5.63
2018-10-06T05:14:10.686Z,5.20
2018-10-06T05:16:37.504Z,4.93
2018-10-06T05:19:04.652Z,5.30
2018-10-06T05:21:31.772Z,5.07
2018-10-06T05:23:58.599Z,5.03
2018-10-06T05:26:26.000Z,5.00
2018-10-06T05:28:53.180Z,5.00
2018-10-06T05:31:20.202Z,4.93
2018-10-06T05:33:46.982Z,5.53
2018-10-06T05:36:14.486Z,4.70
2018-10-06T05:38:42.155Z,4.63
2018-10-06T05:41:09.012Z,4.73
2018-10-06T05:43:36.016Z,4.53
2018-10-06T05:46:03.879Z,5.10
2018-10-06T05:48:30.948Z,4.90
2018-10-06T05:50:57.718Z,5.17
2018-10-06T05:53:24.568Z,5.30
2018-10-06T05:55:51.697Z,4.47
2018-10-06T05:58:19.177Z,4.93
2018-10-06T06:00:46.817Z,4.97
2018-10-06T06:03:14.002Z,5.00
2018-10-06T06:05:40.933Z,5.00
2018-10-06T06:08:07.913Z,5.00
2018-10-06T06:10:34.782Z,4.50
2018-10-06T06:13:01.570Z,4.93
2018-10-06T06:15:28.407Z,5.17
2018-10-06T06:17:56.194Z,4.10
2018-10-06T06:20:23.804Z,4.03
2018-10-06T06:22:51.487Z,4.30
2018-10-06T06:25:18.429Z,5.37
2018-10-06T06:27:45.463Z,5.10
2018-10-06T06:30:12.497Z,5.07
2018-10-06T06:32:39.628Z,4.63
2018-10-06T06:35:06.749Z,4.77
2018-10-06T06:37:34.094Z,4.00
2018-10-06T06:40:00.980Z,4.87
2018-10-06T06:42:27.908Z,5.47
2018-10-06T06:44:55.251Z,4.17
2018-10-06T06:47:22.316Z,4.27
2018-10-06T06:49:49.344Z,4.17
2018-10-06T06:52:16.307Z,4.00
2018-10-06T06:54:43.032Z,3.73
2018-10-06T06:57:10.588Z,4.73
2018-10-06T06:59:38.594Z,4.33
2018-10-06T07:02:05.708Z,4.50
2018-10-06T07:04:32.552Z,4.30
2018-10-06T07:06:59.354Z,4.40
2018-10-06T07:09:26.848Z,4.30
2018-10-06T07:11:54.216Z,4.70
2018-10-06T07:14:21.337Z,4.17
2018-10-06T07:16:48.305Z,4.50
2018-10-06T07:19:15.566Z,3.80
2018-10-06T07:21:42.622Z,4.00
2018-10-06T07:24:09.395Z,3.60
2018-10-06T07:26:36.177Z,3.67
2018-10-06T07:29:03.022Z,3.73
2018-10-06T07:31:30.321Z,4.50
2018-10-06T07:33:58.055Z,4.27
2018-10-06T07:36:28.208Z,3.93
2018-10-06T07:38:55.141Z,4.47
2018-10-06T07:41:22.515Z,4.70
2018-10-06T07:43:49.570Z,4.23
2018-10-06T07:46:16.500Z,4.20
2018-10-06T07:48:43.468Z,4.20
2018-10-06T07:51:10.288Z,4.00
2018-10-06T07:53:37.644Z,3.70
2018-10-06T07:56:04.546Z,3.77
2018-10-06T07:58:31.958Z,3.90
2018-10-06T08:00:58.751Z,4.53
2018-10-06T08:03:26.642Z,4.37
2018-10-06T08:05:53.991Z,4.20
2018-10-06T08:08:21.617Z,5.00
2018-10-06T08:10:48.415Z,4.20
2018-10-06T08:13:16.284Z,4.70
2018-10-06T08:15:43.132Z,4.20
2018-10-06T08:18:09.943Z,4.47
2018-10-06T08:20:37.025Z,4.40
2018-10-06T08:23:04.517Z,4.53
2018-10-06T08:25:31.430Z,5.33
2018-10-06T08:27:58.919Z,4.73
2018-10-06T08:30:25.789Z,4.97
2018-10-06T08:32:52.609Z,5.10
2018-10-06T08:35:19.619Z,4.90
2018-10-06T08:37:46.324Z,5.83
2018-10-06T08:40:13.383Z,5.77
2018-10-06T08:42:40.393Z,5.80
2018-10-06T08:45:07.209Z,4.97
2018-10-06T08:47:34.027Z,5.33
2018-10-06T08:50:00.882Z,5.00
2018-10-06T08:52:27.739Z,5.37
2018-10-06T08:54:55.191Z,5.30
2018-10-06T08:57:22.102Z,5.50
2018-10-06T08:59:48.858Z,5.17
2018-10-06T09:02:15.739Z,5.63
2018-10-06T09:04:43.479Z,5.83
2018-10-06T09:07:11.085Z,5.40
2018-10-06T09:09:38.082Z,5.63
2018-10-06T09:12:05.726Z,5.10
2018-10-06T09:14:32.824Z,4.80
2018-10-06T09:17:00.081Z,6.20
2018-10-06T09:19:27.366Z,5.53
2018-10-06T09:21:54.685Z,5.20
2018-10-06T09:24:21.733Z,4.93
2018-10-06T09:26:48.518Z,4.80
2018-10-06T09:29:15.994Z,5.87
2018-10-06T09:31:43.090Z,5.90
2018-10-06T09:34:10.132Z,5.90
2018-10-06T09:36:36.970Z,5.03
2018-10-06T09:39:05.240Z,5.27
2018-10-06T09:41:32.323Z,5.80
2018-10-06T09:43:59.364Z,5.70
2018-10-06T09:46:26.606Z,6.00
2018-10-06T09:48:53.556Z,5.77
2018-10-06T09:51:21.427Z,4.73
2018-10-06T09:53:51.267Z,5.77
2018-10-06T09:56:21.972Z,5.67
2018-10-06T09:58:48.796Z,5.77
2018-10-06T10:01:21.804Z,6.10
2018-10-06T10:03:54.284Z,5.20
2018-10-06T10:06:21.380Z,6.40
2018-10-06T10:08:48.180Z,6.07
2018-10-06T10:11:15.333Z,5.87
2018-10-06T10:13:42.520Z,6.10
2018-10-06T10:16:09.541Z,6.03
2018-10-06T10:18:36.988Z,6.43
2018-10-06T10:21:11.117Z,6.40
2018-10-06T10:23:38.927Z,5.80
2018-10-06T10:26:06.743Z,6.50
2018-10-06T10:28:33.621Z,5.87
2018-10-06T10:31:00.790Z,6.63
2018-10-06T10:33:27.679Z,6.40
2018-10-06T10:35:54.528Z,5.83
2018-10-06T10:38:21.576Z,6.47
2018-10-06T10:40:48.821Z,6.83
2018-10-06T10:43:16.348Z,6.83
2018-10-06T10:45:43.595Z,6.97
2018-10-06T10:48:10.708Z,6.30
2018-10-06T10:50:37.981Z,6.53
2018-10-06T10:53:05.577Z,6.43
2018-10-06T10:55:32.450Z,6.80
2018-10-06T10:57:59.275Z,6.60
2018-10-06T11:00:26.101Z,6.23
2018-10-06T11:02:52.838Z,6.90
2018-10-06T11:05:19.837Z,6.83
2018-10-06T11:07:46.595Z,6.57
2018-10-06T11:10:13.515Z,7.47
2018-10-06T11:12:40.575Z,7.50
2018-10-06T11:15:07.367Z,6.60
2018-10-06T11:17:34.113Z,6.33
2018-10-06T11:20:01.205Z,6.70
2018-10-06T11:22:29.067Z,7.10
2018-10-06T11:24:56.239Z,6.83
2018-10-06T11:27:23.335Z,7.17
2018-10-06T11:29:51.065Z,8.00
2018-10-06T11:32:17.985Z,7.00
2018-10-06T11:34:44.820Z,6.90
2018-10-06T11:37:12.250Z,6.77
2018-10-06T11:39:39.007Z,6.60
2018-10-06T11:42:05.869Z,7.33
2018-10-06T11:44:33.128Z,7.20
2018-10-06T11:46:59.857Z,7.10
2018-10-06T11:49:33.287Z,6.87
2018-10-06T11:52:00.180Z,7.60
2018-10-06T11:54:29.908Z,7.87
2018-10-06T11:56:56.916Z,7.47
2018-10-06T11:59:23.989Z,8.37
2018-10-06T12:01:51.074Z,7.33
2018-10-06T12:04:19.584Z,6.60
2018-10-06T12:06:46.919Z,7.30
2018-10-06T12:09:14.242Z,6.70
2018-10-06T12:11:41.056Z,6.63
2018-10-06T12:14:07.984Z,7.30
2018-10-06T12:16:34.876Z,7.20
2018-10-06T12:19:01.776Z,7.67
2018-10-06T12:21:29.314Z,7.70
2018-10-06T12:23:56.514Z,8.47
2018-10-06T12:26:23.418Z,8.17
2018-10-06T12:28:50.323Z,8.00
2018-10-06T12:31:17.072Z,8.30
2018-10-06T12:33:43.840Z,7.37
2018-10-06T12:36:10.642Z,7.00
2018-10-06T12:38:38.631Z,7.40
2018-10-06T12:41:05.917Z,8.87
2018-10-06T12:43:32.756Z,8.13
2018-10-06T12:45:59.517Z,7.60
2018-10-06T12:48:27.054Z,6.80
2018-10-06T12:50:53.854Z,7.87
2018-10-06T12:53:21.615Z,6.90
2018-10-06T12:55:49.229Z,6.70
2018-10-06T12:58:16.211Z,8.13
2018-10-06T13:00:43.085Z,7.27
2018-10-06T13:03:09.961Z,6.83
2018-10-06T13:05:36.941Z,6.90
2018-10-06T13:08:04.679Z,7.00
2018-10-06T13:10:32.245Z,7.87
2018-10-06T13:12:59.311Z,7.47
2018-10-06T13:15:26.753Z,8.53
2018-10-06T13:17:54.317Z,8.17
2018-10-06T13:20:21.706Z,8.47
2018-10-06T13:22:48.731Z,8.00
2018-10-06T13:25:15.769Z,9.13
2018-10-06T13:27:43.109Z,8.43
2018-10-06T13:30:09.979Z,8.23
2018-10-06T13:32:37.425Z,8.30
2018-10-06T13:35:04.362Z,8.30
2018-10-06T13:37:31.251Z,7.77
2018-10-06T13:39:58.290Z,8.13
2018-10-06T13:42:25.312Z,8.93
2018-10-06T13:44:52.133Z,7.80
2018-10-06T13:47:19.187Z,8.07
2018-10-06T13:49:46.863Z,7.60
2018-10-06T13:52:13.834Z,8.10
2018-10-06T13:54:40.644Z,7.70
2018-10-06T13:57:07.675Z,8.43
2018-10-06T13:59:34.613Z,8.13
2018-10-06T14:02:01.508Z,7.10
2018-10-06T14:04:28.540Z,7.67
2018-10-06T14:06:55.258Z,7.73
2018-10-06T14:09:22.134Z,7.50
2018-10-06T14:11:49.526Z,7.30
2018-10-06T14:14:16.337Z,7.53
2018-10-06T14:16:46.080Z,7.10
2018-10-06T14:19:13.369Z,6.97
2018-10-06T14:21:41.471Z,7.57
2018-10-06T14:24:08.397Z,6.53
2018-10-06T14:26:35.294Z,7.30
2018-10-06T14:29:02.723Z,6.57
2018-10-06T14:31:30.070Z,7.00
2018-10-06T14:33:58.430Z,6.73
2018-10-06T14:36:26.550Z,6.23
2018-10-06T14:38:53.392Z,7.33
2018-10-06T14:41:21.213Z,6.23
2018-10-06T14:43:48.110Z,6.73
2018-10-06T14:46:15.052Z,6.13
2018-10-06T14:48:41.784Z,6.67
2018-10-06T14:51:09.468Z,5.93
2018-10-06T14:53:36.399Z,5.60
2018-10-06T14:56:03.316Z,6.00
2018-10-06T14:58:30.615Z,6.20
2018-10-06T15:00:58.255Z,6.57
2018-10-06T15:03:25.018Z,6.07
2018-10-06T15:05:51.770Z,5.80
2018-10-06T15:08:18.622Z,6.90
2018-10-06T15:10:46.159Z,6.57
2018-10-06T15:13:13.075Z,6.40
2018-10-06T15:15:39.948Z,6.77
2018-10-06T15:18:07.215Z,7.20
2018-10-06T15:20:34.669Z,6.73
2018-10-06T15:23:01.978Z,7.80
2018-10-06T15:25:29.062Z,8.03
2018-10-06T15:27:56.012Z,7.70
2018-10-06T15:30:22.919Z,6.93
2018-10-06T15:32:49.743Z,8.00
2018-10-06T15:35:17.780Z,8.13
2018-10-06T15:37:45.882Z,7.70
2018-10-06T15:40:13.109Z,9.77
2018-10-06T15:42:40.663Z,9.37
2018-10-06T15:45:07.727Z,9.27
2018-10-06T15:47:34.745Z,9.70
2018-10-06T15:50:01.651Z,11.00
2018-10-06T15:52:28.574Z,10.93
2018-10-06T15:54:55.644Z,11.40
2018-10-06T15:57:22.651Z,11.00
2018-10-06T15:59:49.587Z,10.93
2018-10-06T16:02:16.443Z,9.97
2018-10-06T16:04:43.810Z,12.03
2018-10-06T16:07:10.861Z,11.60
2018-10-06T16:09:37.640Z,11.83
2018-10-06T16:12:04.531Z,11.33
2018-10-06T16:14:31.500Z,12.53
2018-10-06T16:16:58.420Z,11.37
2018-10-06T16:19:25.588Z,10.63
2018-10-06T16:21:52.369Z,12.33
2018-10-06T16:24:19.300Z,11.30
2018-10-06T16:26:46.079Z,11.43
2018-10-06T16:29:12.993Z,13.70
2018-10-06T16:31:40.171Z,12.20
2018-10-06T16:34:07.379Z,13.67
2018-10-06T16:36:34.171Z,13.33
2018-10-06T16:39:00.924Z,12.47
2018-10-06T16:41:27.762Z,13.80
2018-10-06T16:43:54.851Z,12.27
2018-10-06T16:46:21.640Z,12.57
2018-10-06T16:48:48.376Z,14.10
2018-10-06T16:51:15.393Z,13.20
2018-10-06T16:53:42.397Z,13.80
2018-10-06T16:56:09.145Z,13.60
2018-10-06T16:58:35.915Z,12.77
2018-10-06T17:01:02.691Z,12.30
2018-10-06T17:03:29.631Z,13.70
2018-10-06T17:06:08.192Z,12.93
2018-10-06T17:08:35.037Z,11.53
2018-10-06T17:11:02.177Z,12.03
2018-10-06T17:13:29.047Z,12.20
2018-10-06T17:15:55.925Z,11.77
2018-10-06T17:18:22.941Z,13.07
2018-10-06T17:20:49.944Z,14.70
2018-10-06T17:23:17.101Z,13.07
2018-10-06T17:25:44.091Z,12.03
2018-10-06T17:28:10.881Z,11.70
2018-10-06T17:30:37.737Z,12.50
2018-10-06T17:33:04.586Z,12.50
2018-10-06T17:35:31.430Z,14.60
2018-10-06T17:37:58.127Z,13.23
2018-10-06T17:40:24.977Z,12.37
2018-10-06T17:42:51.679Z,13.43
2018-10-06T17:45:18.621Z,12.27
2018-10-06T17:47:45.424Z,13.23
2018-10-06T17:50:12.863Z,14.47
2018-10-06T17:52:39.439Z,13.37
2018-10-06T17:55:09.247Z,13.70
2018-10-06T17:57:36.091Z,12.83
2018-10-06T18:00:02.915Z,13.90
2018-10-06T18:02:29.669Z,14.40
2018-10-06T18:04:56.525Z,13.67
2018-10-06T18:07:23.309Z,14.23
2018-10-06T18:09:50.440Z,14.07
2018-10-06T18:12:17.223Z,15.03
2018-10-06T18:14:44.081Z,14.57
2018-10-06T18:17:10.758Z,13.63
2018-10-06T18:19:37.486Z,14.33
2018-10-06T18:22:04.235Z,13.73
2018-10-06T18:24:31.216Z,14.63
2018-10-06T18:26:58.182Z,14.80
2018-10-06T18:29:25.232Z,14.90
2018-10-06T18:31:52.317Z,14.63
2018-10-06T18:34:19.142Z,13.33
2018-10-06T18:36:46.012Z,15.83
2018-10-06T18:39:12.748Z,14.43
2018-10-06T18:41:39.504Z,15.07
2018-10-06T18:44:06.334Z,14.67
2018-10-06T18:46:33.267Z,14.60
2018-10-06T18:49:00.043Z,15.03
2018-10-06T18:51:26.852Z,13.87
2018-10-06T18:53:53.605Z,15.10
2018-10-06T18:56:20.331Z,13.87
2018-10-06T18:58:47.103Z,14.10
2018-10-06T19:01:13.885Z,14.50
2018-10-06T19:03:40.965Z,15.20
2018-10-06T19:06:07.776Z,14.63
2018-10-06T19:08:34.820Z,13.93
2018-10-06T19:11:01.606Z,14.30
2018-10-06T19:13:28.460Z,14.40
2018-10-06T19:15:55.182Z,13.17
2018-10-06T19:18:21.885Z,15.03
2018-10-06T19:20:48.621Z,14.60
2018-10-06T19:23:15.679Z,14.60
2018-10-06T19:25:42.682Z,14.93
2018-10-06T19:28:09.471Z,14.87
2018-10-06T19:30:36.435Z,13.97
2018-10-06T19:33:03.421Z,13.33
2018-10-06T19:35:30.387Z,13.47
2018-10-06T19:37:57.194Z,13.67
2018-10-06T19:40:23.952Z,14.37
2018-10-06T19:42:51.138Z,13.53
2018-10-06T19:45:17.951Z,14.20
2018-10-06T19:47:44.731Z,14.80
2018-10-06T19:50:11.567Z,13.93
2018-10-06T19:52:38.307Z,13.13
2018-10-06T19:55:05.019Z,14.80
2018-10-06T19:57:31.790Z,15.00
2018-10-06T19:59:58.511Z,13.40
2018-10-06T20:02:25.190Z,14.60
2018-10-06T20:04:52.061Z,13.93
2018-10-06T20:07:18.898Z,13.70
2018-10-06T20:09:45.789Z,13.47
2018-10-06T20:12:12.567Z,12.90
2018-10-06T20:14:39.284Z,12.27
2018-10-06T20:17:06.007Z,13.80
2018-10-06T20:19:32.801Z,13.83
2018-10-06T20:21:59.634Z,13.67
2018-10-06T20:24:26.457Z,11.50
2018-10-06T20:26:53.216Z,12.33
2018-10-06T20:29:20.099Z,13.53
2018-10-06T20:31:46.906Z,12.13
2018-10-06T20:34:13.656Z,12.07
2018-10-06T20:36:40.370Z,11.63
2018-10-06T20:39:08.332Z,10.60
2018-10-06T20:41:35.697Z,11.87
2018-10-06T20:44:03.145Z,11.87
2018-10-06T20:46:30.037Z,11.90
2018-10-06T20:48:56.774Z,11.83
2018-10-06T20:51:23.501Z,10.90
2018-10-06T20:53:50.207Z,11.07
2018-10-06T20:56:17.061Z,10.60
2018-10-06T20:58:43.841Z,11.93
2018-10-06T21:01:10.616Z,10.80
2018-10-06T21:03:37.404Z,10.67
2018-10-06T21:06:04.225Z,12.53
2018-10-06T21:08:31.045Z,11.30
2018-10-06T21:10:57.870Z,11.57
2018-10-06T21:13:24.905Z,13.00
2018-10-06T21:15:51.899Z,12.17
2018-10-06T21:18:18.966Z,13.27
2018-10-06T21:20:45.734Z,13.60
2018-10-06T21:23:12.669Z,13.70
2018-10-06T21:25:39.525Z,13.17
2018-10-06T21:28:06.271Z,13.77
2018-10-06T21:30:33.016Z,13.23
2018-10-06T21:32:59.978Z,12.37
2018-10-06T21:35:27.002Z,13.30
2018-10-06T21:37:53.707Z,12.60
2018-10-06T21:40:20.566Z,13.40
2018-10-06T21:42:47.480Z,11.90
2018-10-06T21:45:14.227Z,13.13
2018-10-06T21:47:40.995Z,11.67
2018-10-06T21:50:07.914Z,10.50
2018-10-06T21:52:35.330Z,11.07
2018-10-06T21:55:02.332Z,11.70
2018-10-06T21:57:29.134Z,10.83
2018-10-06T21:59:56.169Z,9.90
2018-10-06T22:02:24.163Z,9.90
2018-10-06T22:04:50.889Z,10.03
2018-10-06T22:07:17.709Z,9.53
2018-10-06T22:09:45.375Z,8.23
2018-10-06T22:12:12.575Z,8.67
2018-10-06T22:14:39.558Z,8.67
2018-10-06T22:17:06.272Z,7.13
2018-10-06T22:19:33.147Z,6.43
2018-10-06T22:21:59.912Z,7.00
2018-10-06T22:24:26.862Z,5.77
2018-10-06T22:26:54.414Z,6.30
2018-10-06T22:29:21.300Z,6.20
2018-10-06T22:31:47.939Z,5.00
2018-10-06T22:34:14.858Z,5.37
2018-10-06T22:36:41.817Z,4.37
2018-10-06T22:39:09.287Z,3.77
2018-10-06T22:41:36.021Z,4.47
2018-10-06T22:44:02.848Z,4.13
2018-10-06T22:46:29.562Z,3.53
2018-10-06T22:48:56.285Z,3.70
2018-10-06T22:51:23.015Z,3.00
2018-10-06T22:53:49.701Z,2.77
2018-10-06T22:56:16.392Z,2.97
2018-10-06T22:58:43.116Z,2.40
2018-10-06T23:01:10.180Z,2.77
2018-10-06T23:03:36.987Z,2.70
2018-10-06T23:06:03.854Z,2.10
2018-10-06T23:08:30.718Z,2.33
2018-10-06T23:10:57.472Z,2.20
2018-10-06T23:13:24.193Z,2.10
2018-10-06T23:15:50.984Z,2.00
2018-10-06T23:18:18.133Z,1.67
2018-10-06T23:20:44.953Z,1.83
2018-10-06T23:23:11.714Z,1.63
2018-10-06T23:25:38.495Z,1.73
2018-10-06T23:28:05.399Z,1.97
2018-10-06T23:30:32.260Z,1.67
2018-10-06T23:32:58.993Z,1.80
2018-10-06T23:35:25.681Z,1.40
2018-10-06T23:37:52.453Z,1.47
2018-10-06T23:40:19.376Z,1.50
2018-10-06T23:42:46.669Z,1.33
2018-10-06T23:45:13.642Z,1.40
2018-10-06T23:47:40.651Z,1.10
2018-10-06T23:50:07.754Z,1.67
2018-10-06T23:52:34.865Z,1.47
2018-10-06T23:55:01.767Z,1.43
2018-10-06T23:57:28.626Z,1.20
2018-10-06T23:59:55.367Z,1.23
